Nearby METAR Reports

 

KMHT - Manchester, New Hampshire, USA
Distance from station: NNW 6mi, 9km
Updated: 2018-11-17 17:53
Overcast
Overcast
 Wind from SSW
Wind: SSW 6 mph , 9 km/h
Temperature: 43°F , 6°C
Wind Chill: 39°F , 4°C
Dew Point: 28°F , -2°C
Humidity: 57%
Barometer: 30.09 inHg , 1019 hPa
Clouds: Overcast
Visibility: 10 miles , 16 km
Cloud details: Overcast 5500 ft
2018/11/17 22:53 KMHT 172253Z 21005KT 10SM OVC055 06/M02 A3009 RMK AO2 SLP205 T00561017
KASH - Nashua/Boire Fld, New Hampshire, USA
Distance from station: SW 9mi, 15km
Updated: 2018-11-17 17:56
Overcast
Overcast
 Wind from W
Wind: W 6 mph , 9 km/h
Temperature: 43°F , 6°C
Wind Chill: 39°F , 4°C
Dew Point: 28°F , -2°C
Humidity: 57%
Barometer: 30.12 inHg , 1020 hPa
Clouds: Overcast
Visibility: 10 miles , 16 km
Cloud details: Overcast 5000 ft
2018/11/17 22:56 KASH 172256Z 27005KT 10SM OVC050 06/M02 A3012 RMK AO2 SLP211 T00561022
 
KLWM - Lawrence, Massachusetts, USA
Distance from station: SE 16mi, 26km
Updated: 2018-11-17 17:54
Overcast
Overcast
 Wind from SW
Wind: SW 9 mph , 15 km/h
Temperature: 45°F , 7°C
Wind Chill: 40°F , 4°C
Dew Point: 30°F , -1°C
Humidity: 57%
Barometer: 30.12 inHg , 1020 hPa
Clouds: Overcast
Visibility: 10 miles , 16 km
Cloud details: Overcast 5500 ft
2018/11/17 22:54 KLWM 172254Z 23008KT 10SM OVC055 07/M01 A3012 RMK AO2 SLP201 T00671011
KCON - Concord, New Hampshire, USA
Distance from station: NNW 24mi, 39km
Updated: 2018-11-17 18:51
Overcast
Overcast
 Wind from WSW
Wind: WSW 6 mph , 9 km/h
Temperature: 39°F , 4°C
Wind Chill: 35°F , 2°C
Dew Point: 30°F , -1°C
Humidity: 70%
Barometer: 30.11 inHg , 1019.6 hPa
Clouds: Overcast
Visibility: 10 miles , 16 km
Cloud details: Overcast 5000 ft
2018/11/17 23:51 KCON 172351Z AUTO 25005KT 10SM OVC050 04/M01 A3011 RMK AO2 SLP199 T00391011 10072 20039 53018
 
KBED - Bedford, Massachusetts, USA
Distance from station: S 28mi, 45km
Updated: 2018-11-17 17:56
Mostly cloudy
Mostly cloudy
 Wind from W
Wind: W 12 mph , 19 km/h, Gust: 22 mph , 35 km/h
Temperature: 43°F , 6°C
Wind Chill: 37°F , 3°C
Dew Point: 27°F , -3°C
Humidity: 53%
Barometer: 30.12 inHg , 1020 hPa
Clouds: Mostly cloudy
Visibility: 10 miles , 16 km
Cloud details: Mostly cloudy 5000 ft
2018/11/17 22:56 KBED 172256Z 28010G19KT 10SM BKN050 06/M03 A3012 RMK AO2 SLP213 T00611033
KFIT - Fitchburg, Massachusetts, USA
Distance from station: SW 29mi, 47km
Updated: 2018-11-17 17:52
Overcast
Overcast
 Wind from W
Wind: W 8 mph , 13 km/h, Gust: 21 mph , 33 km/h
Temperature: 41°F , 5°C
Wind Chill: 36°F , 2°C
Dew Point: 25°F , -4°C
Humidity: 53%
Barometer: 30.13 inHg , 1020.3 hPa
Clouds: Overcast
Visibility: 10 miles , 16 km
Cloud details: Overcast 5000 ft
2018/11/17 22:52 KFIT 172252Z AUTO 27007G18KT 10SM OVC050 05/M04 A3013 RMK AO2 SLP208 T00501039
 
KBVY - Beverly, Massachusetts, USA
Distance from station: SE 30mi, 49km
Updated: 2018-11-17 17:53
Overcast
Overcast
 Wind from WSW
Wind: WSW 8 mph , 13 km/h
Temperature: 43°F , 6°C
Wind Chill: 38°F , 3°C
Dew Point: 28°F , -2°C
Humidity: 57%
Barometer: 30.11 inHg , 1019.6 hPa
Clouds: Overcast
Visibility: 10 miles , 16 km
Cloud details: Overcast 5000 ft
2018/11/17 22:53 KBVY 172253Z 25007KT 10SM OVC050 06/M02 A3011 RMK AO2 SLP192 T00611017
KPSM - Portsmouth/Pease, New Hampshire, USA
Distance from station: ENE 31mi, 51km
Updated: 2018-11-17 17:56
Overcast
Overcast
 Wind from SW
Wind: SW 6 mph , 9 km/h
Temperature: 41°F , 5°C
Wind Chill: 37°F , 3°C
Dew Point: 28°F , -2°C
Humidity: 61%
Barometer: 30.07 inHg , 1018.3 hPa
Clouds: Overcast
Visibility: 10 miles , 16 km
Cloud details: Overcast 6000 ft
2018/11/17 22:56 KPSM 172256Z 22005KT 10SM OVC060 05/M02 A3007 RMK AO2A SLP186 T00511018
 
KAFN - Jaffrey, New Hampshire, USA
Distance from station: W 32mi, 52km
Updated: 2018-11-17 17:52
Overcast
Overcast
 
Temperature: 39°F , 4°C
Dew Point: 27°F , -3°C
Humidity: 61%
Barometer: 30.09 inHg , 1019 hPa
Clouds: Overcast
Visibility: 10 miles , 16 km
Cloud details: Overcast 4400 ft
2018/11/17 22:52 KAFN 172252Z AUTO 10SM OVC044 04/M03 A3009 RMK AO2 SLP204 T00391028
KDAW - Rochester, New Hampshire, USA
Distance from station: NE 37mi, 60km
Updated: 2018-11-17 18:51
Overcast
Overcast
 Wind from calm
Wind: Calm
Temperature: 39°F , 4°C
Dew Point: 28°F , -2°C
Humidity: 65%
Barometer: 30.09 inHg , 1019 hPa
Clouds: Overcast
Visibility: 10 miles , 16 km
Cloud details: Overcast 5000 ft
2018/11/17 23:51 KDAW 172351Z AUTO 00000KT 10SM OVC050 04/M02 A3009 RMK AO2 SLP190 T00441017
 
KBOS - Boston, Massachusetts, USA
Distance from station: SSE 39mi, 63km
Updated: 2018-11-17 17:54
Mostly cloudy
Mostly cloudy
 Wind from W
Wind: W 13 mph , 20 km/h, Gust: 21 mph , 33 km/h
Temperature: 46°F , 8°C
Wind Chill: 40°F , 4°C
Dew Point: 28°F , -2°C
Humidity: 50%
Barometer: 30.13 inHg , 1020.3 hPa
Clouds: Mostly cloudy
Visibility: 10 miles , 16 km
Cloud details: Mostly cloudy 5000 ft
2018/11/17 22:54 KBOS 172254Z 28011G18KT 10SM BKN050 08/M02 A3013 RMK AO2 SLP201 T00781022
KEEN - Keene/Dillant, New Hampshire, USA
Distance from station: W 45mi, 73km
Updated: 2018-11-17 17:56
Overcast
Overcast
 Wind from SW
Wind: SW 7 mph , 11 km/h
Temperature: 39°F , 4°C
Wind Chill: 34°F , 1°C
Dew Point: 27°F , -3°C
Humidity: 61%
Barometer: 30.12 inHg , 1020 hPa
Clouds: Overcast
Visibility: 10 miles , 16 km
Cloud details: Overcast 4100 ft
2018/11/17 22:56 KEEN 172256Z AUTO 23006KT 10SM OVC041 04/M03 A3012 RMK AO2 SLP222 T00441028 $
 
KMQE - East Milton, Massachusetts, USA
Distance from station: SSE 47mi, 75km
Updated: 2018-11-17 17:56

 Wind from W
Wind: W 14 mph , 22 km/h
Temperature: 39°F , 4°C
Wind Chill: 31°F , -1°C
Dew Point: 28°F , -2°C
Humidity: 65%
Barometer: 30.10 inHg , 1019.3 hPa
2018/11/17 22:56 KMQE 172256Z AUTO 27012KT 04/M02 A3010 RMK AO1 SLP209 T00391017
KORH - Worcester, Massachusetts, USA
Distance from station: SSW 48mi, 78km
Updated: 2018-11-17 17:54
Overcast
Overcast
 Wind from W
Wind: W 10 mph , 17 km/h
Temperature: 39°F , 4°C
Wind Chill: 32°F , 0°C
Dew Point: 27°F , -3°C
Humidity: 61%
Barometer: 30.11 inHg , 1019.6 hPa
Clouds: Overcast
Visibility: 10 miles , 16 km
Cloud details: Overcast 4200 ft
2018/11/17 22:54 KORH 172254Z 26009KT 10SM OVC042 04/M03 A3011 RMK AO2 SLP205 T00391028
 
KOWD - Norwood, Massachusetts, USA
Distance from station: SSE 48mi, 78km
Updated: 2018-11-17 17:53
Overcast
Overcast
 Wind from SW
Wind: SW 5 mph , 7 km/h
Temperature: 46°F , 8°C
Wind Chill: 44°F , 7°C
Dew Point: 28°F , -2°C
Humidity: 50%
Barometer: 30.13 inHg , 1020.3 hPa
Clouds: Overcast
Visibility: 10 miles , 16 km
Cloud details: Overcast 5000 ft
2018/11/17 22:53 KOWD 172253Z 23004KT 10SM OVC050 08/M02 A3013 RMK AO2 SLP203 T00781017
KLCI - Laconia Muni, New Hampshire, USA
Distance from station: N 49mi, 78km
Updated: 2018-11-17 17:56
Overcast
Overcast
 Wind from WSW
Wind: WSW 9 mph , 15 km/h
Temperature: 39°F , 4°C
Wind Chill: 33°F , 1°C
Dew Point: 25°F , -4°C
Humidity: 56%
Barometer: 30.07 inHg , 1018.3 hPa
Clouds: Overcast
Visibility: 10 miles , 16 km
Cloud details: Overcast 5500 ft
2018/11/17 22:56 KLCI 172256Z AUTO 25008KT 10SM OVC055 04/M04 A3007 RMK AO2 SLP203 T00441039 $
 
KSFM - Sanford Muni, Maine, USA
Distance from station: NE 49mi, 79km
Updated: 2018-11-17 17:56
Overcast
Overcast
 Wind from W
Wind: W 7 mph , 11 km/h
Temperature: 41°F , 5°C
Wind Chill: 36°F , 2°C
Dew Point: 27°F , -3°C
Humidity: 57%
Barometer: 30.07 inHg , 1018.3 hPa
Clouds: Overcast
Visibility: 10 miles , 16 km
Cloud details: Overcast 5500 ft
2018/11/17 22:56 KSFM 172256Z AUTO 26006KT 10SM OVC055 05/M03 A3007 RMK AO2 SLP188 T00501033 PNO $